sensor_id;sensor_type;location;lat;lon;timestamp;pressure;altitude;pressure_sealevel;temperature;humidity
35704;BME280;21820;51.112;13.762;2024-03-08T00:02:11;99973.41;;;19.55;38.24
35704;BME280;21820;51.112;13.762;2024-03-08T00:04:38;99982.16;;;19.54;38.95
35704;BME280;21820;51.112;13.762;2024-03-08T00:07:03;99978.84;;;19.52;39.72
35704;BME280;21820;51.112;13.762;2024-03-08T00:09:28;99983.22;;;19.51;38.51
35704;BME280;21820;51.112;13.762;2024-03-08T00:11:55;99969.72;;;19.46;40.26
35704;BME280;21820;51.112;13.762;2024-03-08T00:14:21;99969.09;;;19.42;39.68
35704;BME280;21820;51.112;13.762;2024-03-08T00:16:47;99977.16;;;19.51;38.47
35704;BME280;21820;51.112;13.762;2024-03-08T00:19:12;99970.06;;;19.53;38.38
35704;BME280;21820;51.112;13.762;2024-03-08T00:21:37;99977.16;;;19.51;38.58
35704;BME280;21820;51.112;13.762;2024-03-08T00:24:03;99979.06;;;19.48;38.84
35704;BME280;21820;51.112;13.762;2024-03-08T00:26:28;99973.84;;;19.48;38.61
35704;BME280;21820;51.112;13.762;2024-03-08T00:28:55;99971.59;;;19.44;39.63
35704;BME280;21820;51.112;13.762;2024-03-08T00:31:20;99956.66;;;19.35;38.08
35704;BME280;21820;51.112;13.762;2024-03-08T00:33:46;99971.59;;;19.44;39.06
35704;BME280;21820;51.112;13.762;2024-03-08T00:36:11;99976.81;;;19.44;40.20
35704;BME280;21820;51.112;13.762;2024-03-08T00:38:36;99973.41;;;19.43;39.42
35704;BME280;21820;51.112;13.762;2024-03-08T00:41:02;99979.53;;;19.42;39.50
35704;BME280;21820;51.112;13.762;2024-03-08T00:43:27;99971.00;;;19.40;38.26
35704;BME280;21820;51.112;13.762;2024-03-08T00:45:52;99961.03;;;19.34;38.44
35704;BME280;21820;51.112;13.762;2024-03-08T00:48:17;99971.00;;;19.40;38.11
35704;BME280;21820;51.112;13.762;2024-03-08T00:50:43;99976.22;;;19.40;38.07
35704;BME280;21820;51.112;13.762;2024-03-08T00:53:11;99982.03;;;19.44;38.43
35704;BME280;21820;51.112;13.762;2024-03-08T00:55:37;99964.50;;;19.35;38.55
35704;BME280;21820;51.112;13.762;2024-03-08T00:58:03;99960.56;;;19.40;38.45
35704;BME280;21820;51.112;13.762;2024-03-08T01:00:29;99964.00;;;19.41;38.15
35704;BME280;21820;51.112;13.762;2024-03-08T01:02:54;99959.75;;;19.40;38.95
35704;BME280;21820;51.112;13.762;2024-03-08T01:05:19;99950.00;;;19.31;38.16
35704;BME280;21820;51.112;13.762;2024-03-08T01:07:45;99958.06;;;19.39;39.03
35704;BME280;21820;51.112;13.762;2024-03-08T01:10:11;99958.31;;;19.36;38.31
35704;BME280;21820;51.112;13.762;2024-03-08T01:12:37;99954.88;;;19.35;38.46
35704;BME280;21820;51.112;13.762;2024-03-08T01:15:03;99951.22;;;19.38;38.44
35704;BME280;21820;51.112;13.762;2024-03-08T01:17:28;99953.94;;;19.36;38.97
35704;BME280;21820;51.112;13.762;2024-03-08T01:19:54;99944.91;;;19.29;39.52
35704;BME280;21820;51.112;13.762;2024-03-08T01:22:19;99954.75;;;19.37;38.72
35704;BME280;21820;51.112;13.762;2024-03-08T01:24:45;99947.88;;;19.36;38.14
35704;BME280;21820;51.112;13.762;2024-03-08T01:27:10;99947.06;;;19.35;38.16
35704;BME280;21820;51.112;13.762;2024-03-08T01:29:37;99924.28;;;19.26;38.56
35704;BME280;21820;51.112;13.762;2024-03-08T01:32:02;99930.72;;;19.33;38.58
35704;BME280;21820;51.112;13.762;2024-03-08T01:34:28;99927.28;;;19.33;38.31
35704;BME280;21820;51.112;13.762;2024-03-08T01:36:54;99924.78;;;19.31;38.12
35704;BME280;21820;51.112;13.762;2024-03-08T01:39:20;99915.97;;;19.21;39.90
35704;BME280;21820;51.112;13.762;2024-03-08T01:41:47;99923.00;;;19.32;37.88
35704;BME280;21820;51.112;13.762;2024-03-08T01:44:12;99917.91;;;19.30;38.78
35704;BME280;21820;51.112;13.762;2024-03-08T01:46:40;99917.91;;;19.30;39.07
35704;BME280;21820;51.112;13.762;2024-03-08T01:49:06;99903.91;;;19.20;38.48
35704;BME280;21820;51.112;13.762;2024-03-08T01:51:31;99916.25;;;19.29;39.53
35704;BME280;21820;51.112;13.762;2024-03-08T01:53:57;99898.94;;;19.28;38.48
35704;BME280;21820;51.112;13.762;2024-03-08T01:56:24;99897.03;;;19.30;38.74
35704;BME280;21820;51.112;13.762;2024-03-08T01:58:50;99884.69;;;19.21;39.25
35704;BME280;21820;51.112;13.762;2024-03-08T02:01:16;99879.59;;;19.20;38.96
35704;BME280;21820;51.112;13.762;2024-03-08T02:03:44;99897.25;;;19.27;39.47
35704;BME280;21820;51.112;13.762;2024-03-08T02:06:11;99900.81;;;19.26;39.63
35704;BME280;21820;51.112;13.762;2024-03-08T02:08:38;99897.38;;;19.26;38.53
35704;BME280;21820;51.112;13.762;2024-03-08T02:11:04;99898.22;;;19.26;38.79
35704;BME280;21820;51.112;13.762;2024-03-08T02:13:29;99893.91;;;19.25;38.72
35704;BME280;21820;51.112;13.762;2024-03-08T02:15:58;99881.59;;;19.16;38.40
35704;BME280;21820;51.112;13.762;2024-03-08T02:18:24;99893.13;;;19.25;39.61
35704;BME280;21820;51.112;13.762;2024-03-08T02:20:56;99889.66;;;19.24;39.48
35704;BME280;21820;51.112;13.762;2024-03-08T02:23:22;99888.03;;;19.23;39.14
35704;BME280;21820;51.112;13.762;2024-03-08T02:25:49;99879.38;;;19.23;38.54
35704;BME280;21820;51.112;13.762;2024-03-08T02:28:15;99888.03;;;19.23;39.34
35704;BME280;21820;51.112;13.762;2024-03-08T02:30:41;99887.31;;;19.21;39.18
35704;BME280;21820;51.112;13.762;2024-03-08T02:33:07;99882.22;;;19.20;38.28
35704;BME280;21820;51.112;13.762;2024-03-08T02:35:34;99876.88;;;19.21;38.75
35704;BME280;21820;51.112;13.762;2024-03-08T02:38:00;99862.78;;;19.13;38.93
35704;BME280;21820;51.112;13.762;2024-03-08T02:40:25;99871.91;;;19.18;38.67
35704;BME280;21820;51.112;13.762;2024-03-08T02:42:51;99860.28;;;19.11;39.28
35704;BME280;21820;51.112;13.762;2024-03-08T02:45:16;99871.91;;;19.18;39.21
35704;BME280;21820;51.112;13.762;2024-03-08T02:47:41;99872.72;;;19.19;39.01
35704;BME280;21820;51.112;13.762;2024-03-08T02:50:07;99873.66;;;19.18;38.39
35704;BME280;21820;51.112;13.762;2024-03-08T02:52:37;99876.28;;;19.18;39.86
35704;BME280;21820;51.112;13.762;2024-03-08T02:55:02;99876.16;;;19.19;37.74
35704;BME280;21820;51.112;13.762;2024-03-08T02:57:28;99873.78;;;19.05;38.86
35704;BME280;21820;51.112;13.762;2024-03-08T02:59:53;99874.56;;;18.84;38.35
35704;BME280;21820;51.112;13.762;2024-03-08T03:02:19;99868.50;;;18.72;36.75
35704;BME280;21820;51.112;13.762;2024-03-08T03:04:44;99871.28;;;18.58;36.78
35704;BME280;21820;51.112;13.762;2024-03-08T03:07:09;99867.03;;;18.57;35.87
35704;BME280;21820;51.112;13.762;2024-03-08T03:09:36;99874.00;;;18.57;36.34
35704;BME280;21820;51.112;13.762;2024-03-08T03:12:01;99870.63;;;18.67;36.20
35704;BME280;21820;51.112;13.762;2024-03-08T03:14:27;99866.03;;;18.71;36.19
35704;BME280;21820;51.112;13.762;2024-03-08T03:16:53;99856.03;;;18.65;36.45
35704;BME280;21820;51.112;13.762;2024-03-08T03:19:19;99860.22;;;18.67;37.21
35704;BME280;21820;51.112;13.762;2024-03-08T03:21:45;99851.22;;;18.71;36.18
35704;BME280;21820;51.112;13.762;2024-03-08T03:24:11;99852.19;;;18.81;36.33
35704;BME280;21820;51.112;13.762;2024-03-08T03:26:40;99848.84;;;18.79;36.51
35704;BME280;21820;51.112;13.762;2024-03-08T03:29:06;99853.50;;;18.76;35.97
35704;BME280;21820;51.112;13.762;2024-03-08T03:31:31;99859.97;;;18.70;37.09
35704;BME280;21820;51.112;13.762;2024-03-08T03:33:57;99855.00;;;18.67;35.77
35704;BME280;21820;51.112;13.762;2024-03-08T03:36:27;99862.31;;;18.62;35.80
35704;BME280;21820;51.112;13.762;2024-03-08T03:38:53;99850.47;;;18.58;35.59
35704;BME280;21820;51.112;13.762;2024-03-08T03:41:29;99852.16;;;18.59;35.99
35704;BME280;21820;51.112;13.762;2024-03-08T03:43:55;99841.25;;;18.54;36.33
35704;BME280;21820;51.112;13.762;2024-03-08T03:46:20;99849.06;;;18.54;35.21
35704;BME280;21820;51.112;13.762;2024-03-08T03:48:45;99848.81;;;18.57;36.92
35704;BME280;21820;51.112;13.762;2024-03-08T03:51:11;99851.91;;;18.62;36.26
35704;BME280;21820;51.112;13.762;2024-03-08T03:53:37;99849.56;;;18.70;36.15
35704;BME280;21820;51.112;13.762;2024-03-08T03:56:02;99847.69;;;18.72;35.84
35704;BME280;21820;51.112;13.762;2024-03-08T03:58:32;99845.09;;;18.83;36.96
35704;BME280;21820;51.112;13.762;2024-03-08T04:00:57;99845.22;;;18.82;36.87
35704;BME280;21820;51.112;13.762;2024-03-08T04:03:22;99842.47;;;18.83;37.01
35704;BME280;21820;51.112;13.762;2024-03-08T04:05:47;99836.91;;;18.88;36.80
35704;BME280;21820;51.112;13.762;2024-03-08T04:08:13;99837.03;;;18.97;37.32
35704;BME280;21820;51.112;13.762;2024-03-08T04:10:39;99821.53;;;18.85;36.98
35704;BME280;21820;51.112;13.762;2024-03-08T04:13:04;99836.22;;;18.97;37.64
35704;BME280;21820;51.112;13.762;2024-03-08T04:15:29;99817.41;;;18.93;37.66
35704;BME280;21820;51.112;13.762;2024-03-08T04:17:55;99834.91;;;19.02;36.96
35704;BME280;21820;51.112;13.762;2024-03-08T04:20:22;99828.91;;;19.02;38.08
35704;BME280;21820;51.112;13.762;2024-03-08T04:22:47;99815.84;;;18.91;36.89
35704;BME280;21820;51.112;13.762;2024-03-08T04:25:14;99834.22;;;19.00;37.47
35704;BME280;21820;51.112;13.762;2024-03-08T04:27:39;99836.59;;;19.03;37.38
35704;BME280;21820;51.112;13.762;2024-03-08T04:30:06;99840.13;;;19.02;37.08
35704;BME280;21820;51.112;13.762;2024-03-08T04:32:34;99834.91;;;19.02;38.00
35704;BME280;21820;51.112;13.762;2024-03-08T04:35:00;99837.31;;;19.05;36.80
35704;BME280;21820;51.112;13.762;2024-03-08T04:37:28;99830.53;;;19.03;36.96
35704;BME280;21820;51.112;13.762;2024-03-08T04:39:56;99828.78;;;18.92;37.02
35704;BME280;21820;51.112;13.762;2024-03-08T04:42:22;99825.63;;;18.65;36.29
35704;BME280;21820;51.112;13.762;2024-03-08T04:44:48;99830.38;;;18.71;36.08
35704;BME280;21820;51.112;13.762;2024-03-08T04:47:13;99829.28;;;18.52;35.70
35704;BME280;21820;51.112;13.762;2024-03-08T04:49:38;99814.38;;;18.30;35.90
35704;BME280;21820;51.112;13.762;2024-03-08T04:52:04;99826.91;;;18.01;35.74
35704;BME280;21820;51.112;13.762;2024-03-08T04:54:30;99831.94;;;17.92;36.29
35704;BME280;21820;51.112;13.762;2024-03-08T04:56:56;99824.72;;;18.08;36.39
35704;BME280;21820;51.112;13.762;2024-03-08T04:59:21;99823.28;;;18.04;35.91
35704;BME280;21820;51.112;13.762;2024-03-08T05:01:46;99818.53;;;17.98;35.37
35704;BME280;21820;51.112;13.762;2024-03-08T05:04:13;99822.19;;;18.06;36.87
35704;BME280;21820;51.112;13.762;2024-03-08T05:06:38;99818.06;;;18.04;36.24
35704;BME280;21820;51.112;13.762;2024-03-08T05:09:03;99816.75;;;18.33;34.81
35704;BME280;21820;51.112;13.762;2024-03-08T05:11:42;99822.31;;;18.29;35.20
35704;BME280;21820;51.112;13.762;2024-03-08T05:14:08;99810.34;;;18.26;36.01
35704;BME280;21820;51.112;13.762;2024-03-08T05:16:33;99813.28;;;18.21;36.77
35704;BME280;21820;51.112;13.762;2024-03-08T05:18:59;99814.13;;;18.22;35.66
35704;BME280;21820;51.112;13.762;2024-03-08T05:21:24;99810.28;;;18.15;36.25
35704;BME280;21820;51.112;13.762;2024-03-08T05:23:50;99811.41;;;18.23;35.60
35704;BME280;21820;51.112;13.762;2024-03-08T05:26:16;99818.16;;;18.26;35.42
35704;BME280;21820;51.112;13.762;2024-03-08T05:28:42;99808.66;;;18.14;36.49
35704;BME280;21820;51.112;13.762;2024-03-08T05:31:07;99807.47;;;18.18;35.78
35704;BME280;21820;51.112;13.762;2024-03-08T05:33:33;99805.94;;;18.15;35.98
35704;BME280;21820;51.112;13.762;2024-03-08T05:36:00;99813.34;;;18.09;35.87
35704;BME280;21820;51.112;13.762;2024-03-08T05:38:26;99800.13;;;19.03;35.60
35704;BME280;21820;51.112;13.762;2024-03-08T05:40:51;99808.63;;;19.27;32.73
35704;BME280;21820;51.112;13.762;2024-03-08T05:43:16;99798.44;;;19.24;33.90
35704;BME280;21820;51.112;13.762;2024-03-08T05:45:44;99805.56;;;19.00;33.52
35704;BME280;21820;51.112;13.762;2024-03-08T05:48:10;99800.00;;;18.94;31.95
35704;BME280;21820;51.112;13.762;2024-03-08T05:50:37;99796.06;;;18.88;33.84
35704;BME280;21820;51.112;13.762;2024-03-08T05:53:03;99796.31;;;18.85;33.90
35704;BME280;21820;51.112;13.762;2024-03-08T05:55:34;99788.25;;;18.77;34.00
35704;BME280;21820;51.112;13.762;2024-03-08T05:58:02;99804.69;;;18.67;33.79
35704;BME280;21820;51.112;13.762;2024-03-08T06:00:28;99788.09;;;18.68;33.63
35704;BME280;21820;51.112;13.762;2024-03-08T06:02:53;99803.63;;;18.69;33.69
35704;BME280;21820;51.112;13.762;2024-03-08T06:05:19;99791.78;;;18.65;33.04
35704;BME280;21820;51.112;13.762;2024-03-08T06:07:44;99797.47;;;18.70;34.00
35704;BME280;21820;51.112;13.762;2024-03-08T06:10:10;99802.56;;;18.61;33.42
35704;BME280;21820;51.112;13.762;2024-03-08T06:12:36;99792.75;;;18.64;33.16
35704;BME280;21820;51.112;13.762;2024-03-08T06:15:08;99790.16;;;18.64;33.42
35704;BME280;21820;51.112;13.762;2024-03-08T06:17:34;99794.50;;;18.64;33.56
35704;BME280;21820;51.112;13.762;2024-03-08T06:20:00;99797.13;;;18.64;32.95
35704;BME280;21820;51.112;13.762;2024-03-08T06:22:25;99801.47;;;18.63;32.77
35704;BME280;21820;51.112;13.762;2024-03-08T06:24:50;99805.28;;;18.59;32.47
35704;BME280;21820;51.112;13.762;2024-03-08T06:27:16;99792.84;;;18.63;32.59
35704;BME280;21820;51.112;13.762;2024-03-08T06:29:42;99792.94;;;18.61;33.44
35704;BME280;21820;51.112;13.762;2024-03-08T06:32:08;99798.41;;;18.58;32.75
35704;BME280;21820;51.112;13.762;2024-03-08T06:34:33;99790.34;;;18.61;33.41
35704;BME280;21820;51.112;13.762;2024-03-08T06:37:00;99790.16;;;18.64;31.86
35704;BME280;21820;51.112;13.762;2024-03-08T06:39:26;99792.75;;;18.64;32.29
35704;BME280;21820;51.112;13.762;2024-03-08T06:41:52;99797.94;;;18.64;33.23
35704;BME280;21820;51.112;13.762;2024-03-08T06:44:17;99791.31;;;18.60;32.31
35704;BME280;21820;51.112;13.762;2024-03-08T06:46:42;99807.97;;;18.58;32.86
35704;BME280;21820;51.112;13.762;2024-03-08T06:49:07;99791.91;;;18.64;32.18
35704;BME280;21820;51.112;13.762;2024-03-08T06:51:34;99793.91;;;18.60;32.09
35704;BME280;21820;51.112;13.762;2024-03-08T06:54:00;99792.50;;;18.67;33.10
35704;BME280;21820;51.112;13.762;2024-03-08T06:56:25;99788.81;;;18.70;32.12
35704;BME280;21820;51.112;13.762;2024-03-08T06:58:50;99787.78;;;18.72;31.75
35704;BME280;21820;51.112;13.762;2024-03-08T07:01:19;99788.72;;;18.71;32.94
35704;BME280;21820;51.112;13.762;2024-03-08T07:03:44;99782.09;;;18.67;32.14
35704;BME280;21820;51.112;13.762;2024-03-08T07:06:10;99783.84;;;18.67;32.56
35704;BME280;21820;51.112;13.762;2024-03-08T07:08:36;99776.16;;;18.65;32.29
35704;BME280;21820;51.112;13.762;2024-03-08T07:11:01;99775.22;;;18.66;32.47
35704;BME280;21820;51.112;13.762;2024-03-08T07:13:27;99778.78;;;18.65;32.39
35704;BME280;21820;51.112;13.762;2024-03-08T07:15:53;99774.88;;;18.71;32.81
35704;BME280;21820;51.112;13.762;2024-03-08T07:18:18;99773.31;;;18.68;33.48
35704;BME280;21820;51.112;13.762;2024-03-08T07:20:44;99782.56;;;18.72;31.91
35704;BME280;21820;51.112;13.762;2024-03-08T07:23:09;99780.41;;;18.66;32.67
35704;BME280;21820;51.112;13.762;2024-03-08T07:25:35;99777.69;;;18.68;32.90
35704;BME280;21820;51.112;13.762;2024-03-08T07:28:01;99775.44;;;18.63;31.83
35704;BME280;21820;51.112;13.762;2024-03-08T07:30:26;99770.25;;;18.63;32.80
35704;BME280;21820;51.112;13.762;2024-03-08T07:33:10;99770.00;;;18.66;32.50
35704;BME280;21820;51.112;13.762;2024-03-08T07:35:39;99773.81;;;18.62;32.11
35704;BME280;21820;51.112;13.762;2024-03-08T07:38:06;99773.81;;;18.62;33.30
35704;BME280;21820;51.112;13.762;2024-03-08T07:40:34;99771.69;;;18.67;32.84
35704;BME280;21820;51.112;13.762;2024-03-08T07:43:00;99764.09;;;18.64;33.13
35704;BME280;21820;51.112;13.762;2024-03-08T07:45:25;99765.03;;;18.63;33.09
35704;BME280;21820;51.112;13.762;2024-03-08T07:47:50;99760.78;;;18.62;32.82
35704;BME280;21820;51.112;13.762;2024-03-08T07:50:16;99758.50;;;18.58;32.23
35704;BME280;21820;51.112;13.762;2024-03-08T07:52:42;99746.56;;;18.55;32.76
35704;BME280;21820;51.112;13.762;2024-03-08T07:55:07;99758.97;;;18.63;32.42
35704;BME280;21820;51.112;13.762;2024-03-08T07:57:33;99759.81;;;18.63;33.00
35704;BME280;21820;51.112;13.762;2024-03-08T07:59:58;99751.91;;;18.65;32.40
35704;BME280;21820;51.112;13.762;2024-03-08T08:02:23;99758.53;;;18.69;32.54
35704;BME280;21820;51.112;13.762;2024-03-08T08:04:49;99762.06;;;18.68;32.33
35704;BME280;21820;51.112;13.762;2024-03-08T08:07:14;99748.94;;;18.69;31.79
35704;BME280;21820;51.112;13.762;2024-03-08T08:09:40;99757.56;;;18.70;32.54
35704;BME280;21820;51.112;13.762;2024-03-08T08:12:06;99751.06;;;19.30;32.46
35704;BME280;21820;51.112;13.762;2024-03-08T08:14:32;99758.66;;;19.00;31.44
35704;BME280;21820;51.112;13.762;2024-03-08T08:16:57;99751.19;;;18.85;32.32
35704;BME280;21820;51.112;13.762;2024-03-08T08:19:25;99749.06;;;19.01;32.57
35704;BME280;21820;51.112;13.762;2024-03-08T08:21:51;99748.38;;;19.64;31.83
35704;BME280;21820;51.112;13.762;2024-03-08T08:24:17;99745.59;;;19.22;31.48
35704;BME280;21820;51.112;13.762;2024-03-08T08:26:42;99740.41;;;19.33;31.83
35704;BME280;21820;51.112;13.762;2024-03-08T08:29:09;99737.59;;;19.03;31.43
35704;BME280;21820;51.112;13.762;2024-03-08T08:31:34;99731.44;;;18.93;32.33
35704;BME280;21820;51.112;13.762;2024-03-08T08:34:00;99726.06;;;19.06;31.70
35704;BME280;21820;51.112;13.762;2024-03-08T08:36:25;99732.97;;;18.85;31.43
35704;BME280;21820;51.112;13.762;2024-03-08T08:38:50;99727.63;;;18.86;32.62
35704;BME280;21820;51.112;13.762;2024-03-08T08:41:19;99723.13;;;18.88;32.78
35704;BME280;21820;51.112;13.762;2024-03-08T08:43:44;99727.41;;;18.78;32.61
35704;BME280;21820;51.112;13.762;2024-03-08T08:46:10;99711.19;;;18.75;33.51
35704;BME280;21820;51.112;13.762;2024-03-08T08:48:39;99727.34;;;19.22;34.76
35704;BME280;21820;51.112;13.762;2024-03-08T08:51:06;99710.28;;;19.72;34.10
35704;BME280;21820;51.112;13.762;2024-03-08T08:53:37;99710.47;;;19.60;33.21
35704;BME280;21820;51.112;13.762;2024-03-08T08:56:03;99714.94;;;19.15;32.68
35704;BME280;21820;51.112;13.762;2024-03-08T08:58:28;99710.59;;;18.82;33.29
35704;BME280;21820;51.112;13.762;2024-03-08T09:00:54;99697.50;;;19.26;33.49
35704;BME280;21820;51.112;13.762;2024-03-08T09:03:19;99697.50;;;19.26;32.65
35704;BME280;21820;51.112;13.762;2024-03-08T09:05:45;99697.47;;;19.48;33.46
35704;BME280;21820;51.112;13.762;2024-03-08T09:08:10;99697.38;;;19.71;32.84
35704;BME280;21820;51.112;13.762;2024-03-08T09:10:36;99697.66;;;19.03;33.33
35704;BME280;21820;51.112;13.762;2024-03-08T09:13:01;99706.91;;;19.92;32.94
35704;BME280;21820;51.112;13.762;2024-03-08T09:15:29;99691.97;;;20.15;33.36
35704;BME280;21820;51.112;13.762;2024-03-08T09:17:54;99702.22;;;20.27;33.56
35704;BME280;21820;51.112;13.762;2024-03-08T09:20:20;99691.25;;;20.33;33.81
35704;BME280;21820;51.112;13.762;2024-03-08T09:22:45;99692.44;;;19.68;32.70
35704;BME280;21820;51.112;13.762;2024-03-08T09:25:11;99685.97;;;19.83;34.52
35704;BME280;21820;51.112;13.762;2024-03-08T09:27:36;99687.13;;;19.58;33.60
35704;BME280;21820;51.112;13.762;2024-03-08T09:30:02;99687.28;;;19.45;33.03
35704;BME280;21820;51.112;13.762;2024-03-08T09:32:27;99686.94;;;19.71;34.82
35704;BME280;21820;51.112;13.762;2024-03-08T09:34:53;99678.84;;;19.53;34.72
35704;BME280;21820;51.112;13.762;2024-03-08T09:37:18;99683.47;;;19.50;35.08
35704;BME280;21820;51.112;13.762;2024-03-08T09:39:44;99672.66;;;19.33;34.95
35704;BME280;21820;51.112;13.762;2024-03-08T09:42:10;99670.03;;;19.33;35.83
35704;BME280;21820;51.112;13.762;2024-03-08T09:44:36;99667.28;;;19.24;35.31
35704;BME280;21820;51.112;13.762;2024-03-08T09:47:02;99676.44;;;19.18;34.72
35704;BME280;21820;51.112;13.762;2024-03-08T09:49:27;99668.97;;;19.25;35.22
35704;BME280;21820;51.112;13.762;2024-03-08T09:51:54;99666.59;;;19.33;36.60
35704;BME280;21820;51.112;13.762;2024-03-08T09:54:20;99673.47;;;19.66;36.49
35704;BME280;21820;51.112;13.762;2024-03-08T09:56:48;99670.97;;;19.43;36.46
35704;BME280;21820;51.112;13.762;2024-03-08T09:59:13;99669.47;;;19.51;36.25
35704;BME280;21820;51.112;13.762;2024-03-08T10:01:39;99660.94;;;19.48;35.78
35704;BME280;21820;51.112;13.762;2024-03-08T10:04:04;99662.91;;;19.35;34.40
35704;BME280;21820;51.112;13.762;2024-03-08T10:06:30;99645.19;;;19.07;35.01
35704;BME280;21820;51.112;13.762;2024-03-08T10:08:56;99657.28;;;19.08;33.50
35704;BME280;21820;51.112;13.762;2024-03-08T10:11:21;99663.88;;;19.34;33.76
35704;BME280;21820;51.112;13.762;2024-03-08T10:13:48;99644.84;;;19.55;34.06
35704;BME280;21820;51.112;13.762;2024-03-08T10:16:13;99647.53;;;19.21;34.13
35704;BME280;21820;51.112;13.762;2024-03-08T10:18:39;99652.34;;;19.26;34.37
35704;BME280;21820;51.112;13.762;2024-03-08T10:21:06;99640.56;;;19.11;34.81
35704;BME280;21820;51.112;13.762;2024-03-08T10:23:32;99642.09;;;19.02;34.08
35704;BME280;21820;51.112;13.762;2024-03-08T10:26:09;99634.56;;;18.88;33.62
35704;BME280;21820;51.112;13.762;2024-03-08T10:28:34;99625.53;;;19.03;35.13
35704;BME280;21820;51.112;13.762;2024-03-08T10:31:00;99640.88;;;19.28;36.09
35704;BME280;21820;51.112;13.762;2024-03-08T10:33:25;99629.97;;;19.34;36.62
35704;BME280;21820;51.112;13.762;2024-03-08T10:35:51;99617.72;;;19.03;36.06
35704;BME280;21820;51.112;13.762;2024-03-08T10:38:19;99634.75;;;19.18;36.26
35704;BME280;21820;51.112;13.762;2024-03-08T10:40:46;99630.25;;;19.20;36.13
35704;BME280;21820;51.112;13.762;2024-03-08T10:43:21;99628.31;;;19.22;36.57
35704;BME280;21820;51.112;13.762;2024-03-08T10:45:53;99623.34;;;19.19;35.71
35704;BME280;21820;51.112;13.762;2024-03-08T10:48:29;99619.88;;;18.98;35.23
35704;BME280;21820;51.112;13.762;2024-03-08T10:50:59;99626.47;;;19.02;35.54
35704;BME280;21820;51.112;13.762;2024-03-08T10:53:27;99624.06;;;19.32;35.93
35704;BME280;21820;51.112;13.762;2024-03-08T10:55:53;99618.19;;;19.51;35.96
35704;BME280;21820;51.112;13.762;2024-03-08T10:58:22;99595.13;;;19.35;35.67
35704;BME280;21820;51.112;13.762;2024-03-08T11:00:48;99603.34;;;19.20;35.49
35704;BME280;21820;51.112;13.762;2024-03-08T11:06:15;99604.41;;;19.17;35.16
35704;BME280;21820;51.112;13.762;2024-03-08T11:08:40;99594.91;;;19.38;36.25
35704;BME280;21820;51.112;13.762;2024-03-08T11:11:23;99586.25;;;19.38;36.09
35704;BME280;21820;51.112;13.762;2024-03-08T11:13:52;99586.16;;;19.17;36.61
35704;BME280;21820;51.112;13.762;2024-03-08T11:18:54;99585.56;;;19.25;35.81
35704;BME280;21820;51.112;13.762;2024-03-08T11:21:19;99586.16;;;19.17;35.18
35704;BME280;21820;51.112;13.762;2024-03-08T11:24:02;99573.25;;;19.16;36.55
35704;BME280;21820;51.112;13.762;2024-03-08T11:26:30;99574.66;;;18.88;35.51
35704;BME280;21820;51.112;13.762;2024-03-08T11:32:11;99566.03;;;19.19;35.57
35704;BME280;21820;51.112;13.762;2024-03-08T11:34:46;99556.34;;;19.42;36.58
35704;BME280;21820;51.112;13.762;2024-03-08T11:37:20;99563.53;;;19.18;35.00
35704;BME280;21820;51.112;13.762;2024-03-08T11:39:50;99565.44;;;19.48;35.63
35704;BME280;21820;51.112;13.762;2024-03-08T11:42:17;99555.34;;;19.33;35.55
35704;BME280;21820;51.112;13.762;2024-03-08T11:44:43;99545.22;;;19.61;35.42
35704;BME280;21820;51.112;13.762;2024-03-08T11:47:10;99550.19;;;19.64;35.86
35704;BME280;21820;51.112;13.762;2024-03-08T11:49:36;99540.16;;;19.89;34.79
35704;BME280;21820;51.112;13.762;2024-03-08T11:52:01;99536.03;;;19.87;34.60
35704;BME280;21820;51.112;13.762;2024-03-08T11:54:28;99527.94;;;19.60;35.05
35704;BME280;21820;51.112;13.762;2024-03-08T11:56:54;99528.50;;;19.42;34.37
35704;BME280;21820;51.112;13.762;2024-03-08T11:59:20;99530.09;;;19.55;35.54
35704;BME280;21820;51.112;13.762;2024-03-08T12:02:01;99526.25;;;19.79;35.54
35704;BME280;21820;51.112;13.762;2024-03-08T12:04:27;99526.53;;;19.56;35.83
35704;BME280;21820;51.112;13.762;2024-03-08T12:06:53;99513.66;;;19.22;35.19
35704;BME280;21820;51.112;13.762;2024-03-08T12:09:18;99520.16;;;19.48;36.13
35704;BME280;21820;51.112;13.762;2024-03-08T12:11:47;99518.28;;;19.19;35.63
35704;BME280;21820;51.112;13.762;2024-03-08T12:14:12;99507.50;;;19.23;34.55
35704;BME280;21820;51.112;13.762;2024-03-08T12:16:38;99505.81;;;19.22;35.70
35704;BME280;21820;51.112;13.762;2024-03-08T12:19:03;99493.75;;;19.21;36.84
35704;BME280;21820;51.112;13.762;2024-03-08T12:21:31;99502.59;;;19.09;35.88
35704;BME280;21820;51.112;13.762;2024-03-08T12:24:03;99500.50;;;19.03;35.98
35704;BME280;21820;51.112;13.762;2024-03-08T12:26:29;99499.69;;;19.23;35.75
35704;BME280;21820;51.112;13.762;2024-03-08T12:29:14;99501.84;;;19.18;36.91
35704;BME280;21820;51.112;13.762;2024-03-08T12:31:42;99503.09;;;19.35;35.61
35704;BME280;21820;51.112;13.762;2024-03-08T12:34:07;99490.53;;;19.29;35.62
35704;BME280;21820;51.112;13.762;2024-03-08T12:36:35;99490.59;;;19.59;36.29
35704;BME280;21820;51.112;13.762;2024-03-08T12:39:01;99478.81;;;19.65;36.34
35704;BME280;21820;51.112;13.762;2024-03-08T12:41:28;99483.47;;;19.61;35.48
35704;BME280;21820;51.112;13.762;2024-03-08T12:43:54;99472.41;;;19.27;35.97
35704;BME280;21820;51.112;13.762;2024-03-08T12:46:21;99474.41;;;19.35;36.27
35704;BME280;21820;51.112;13.762;2024-03-08T12:48:47;99473.97;;;19.90;35.87
35704;BME280;21820;51.112;13.762;2024-03-08T12:51:13;99462.22;;;19.66;36.73
35704;BME280;21820;51.112;13.762;2024-03-08T12:53:38;99464.56;;;19.38;36.61
35704;BME280;21820;51.112;13.762;2024-03-08T12:56:05;99459.16;;;19.61;37.38